createdAt,value
2023-04-18T00:01:27.544Z,82.68
2023-04-18T00:03:55.319Z,84.58
2023-04-18T00:06:23.136Z,88.58
2023-04-18T00:08:50.998Z,84.78
2023-04-18T00:11:21.017Z,90.58
2023-04-18T00:13:48.888Z,83.91
2023-04-18T00:16:16.839Z,82.35
2023-04-18T00:18:44.665Z,90.75
2023-04-18T00:21:13.316Z,89.61
2023-04-18T00:23:41.672Z,84.50
2023-04-18T00:26:09.496Z,88.07
2023-04-18T00:28:38.835Z,84.22
2023-04-18T00:31:06.595Z,89.32
2023-04-18T00:33:35.133Z,83.29
2023-04-18T00:36:03.350Z,82.45
2023-04-18T00:38:31.066Z,87.10
2023-04-18T00:40:58.763Z,81.90
2023-04-18T00:43:26.775Z,86.82
2023-04-18T00:45:56.957Z,90.00
2023-04-18T00:48:25.233Z,89.94
2023-04-18T00:50:55.335Z,95.15
2023-04-18T00:53:23.237Z,96.72
2023-04-18T00:55:51.388Z,89.59
2023-04-18T00:58:19.657Z,96.03
2023-04-18T01:00:47.602Z,97.51
2023-04-18T01:03:18.194Z,95.39
2023-04-18T01:05:47.113Z,88.49
2023-04-18T01:08:14.859Z,90.32
2023-04-18T01:10:42.727Z,84.47
2023-04-18T01:13:12.092Z,85.15
2023-04-18T01:15:42.294Z,82.39
2023-04-18T01:18:10.534Z,88.55
2023-04-18T01:20:42.568Z,80.68
2023-04-18T01:23:11.158Z,85.39
2023-04-18T01:25:40.242Z,82.54
2023-04-18T01:28:08.297Z,87.82
2023-04-18T01:30:36.003Z,83.13
2023-04-18T01:33:04.882Z,87.45
2023-04-18T01:35:32.827Z,91.96
2023-04-18T01:38:01.119Z,90.37
2023-04-18T01:40:29.842Z,93.38
2023-04-18T01:42:58.838Z,92.01
2023-04-18T01:45:26.706Z,96.86
2023-04-18T01:47:54.336Z,95.07
2023-04-18T01:50:22.163Z,93.28
2023-04-18T01:52:49.778Z,97.10
2023-04-18T01:55:17.508Z,94.60
2023-04-18T01:57:45.266Z,91.90
2023-04-18T02:00:15.212Z,97.66
2023-04-18T02:02:43.099Z,92.40
2023-04-18T02:05:10.964Z,95.32
2023-04-18T02:07:40.099Z,94.86
2023-04-18T02:10:09.319Z,96.22
2023-04-18T02:12:36.967Z,97.04
2023-04-18T02:15:05.212Z,100.00
2023-04-18T02:17:37.829Z,94.75
2023-04-18T02:20:08.232Z,98.83
2023-04-18T02:22:37.551Z,96.99
2023-04-18T02:25:05.734Z,96.10
2023-04-18T02:27:33.408Z,97.46
2023-04-18T02:30:01.029Z,96.94
2023-04-18T02:32:28.765Z,96.94
2023-04-18T02:34:57.727Z,95.68
2023-04-18T02:37:25.377Z,94.20
2023-04-18T02:39:53.018Z,94.14
2023-04-18T02:42:20.844Z,95.98
2023-04-18T02:44:49.086Z,95.95
2023-04-18T02:47:17.161Z,96.74
2023-04-18T02:49:47.276Z,94.35
2023-04-18T02:52:16.419Z,95.95
2023-04-18T02:54:44.144Z,97.19
2023-04-18T02:57:17.987Z,92.87
2023-04-18T02:59:54.642Z,94.72
2023-04-18T03:02:41.191Z,95.87
2023-04-18T03:05:23.570Z,93.30
2023-04-18T03:07:53.754Z,94.24
2023-04-18T03:10:21.387Z,97.85
2023-04-18T03:12:49.000Z,98.79
2023-04-18T03:15:18.681Z,100.00
2023-04-18T03:17:47.425Z,99.94
2023-04-18T03:20:16.591Z,99.57
2023-04-18T03:22:44.410Z,100.00
2023-04-18T03:25:14.629Z,99.72
2023-04-18T03:27:50.432Z,100.00
2023-04-18T03:30:22.056Z,100.00
2023-04-18T03:32:53.904Z,100.00
2023-04-18T03:35:21.552Z,100.00
2023-04-18T03:37:49.901Z,100.00
2023-04-18T03:40:27.867Z,100.00
2023-04-18T03:43:00.700Z,100.00
2023-04-18T03:45:28.423Z,100.00
2023-04-18T03:47:56.963Z,100.00
2023-04-18T03:50:25.639Z,100.00
2023-04-18T03:52:55.432Z,100.00
2023-04-18T03:55:23.058Z,100.00
2023-04-18T03:57:52.936Z,100.00
2023-04-18T04:00:27.315Z,100.00
2023-04-18T04:03:07.626Z,100.00
2023-04-18T04:05:35.737Z,100.00
2023-04-18T04:08:03.406Z,100.00
2023-04-18T04:10:31.275Z,100.00
2023-04-18T04:13:00.546Z,100.00
2023-04-18T04:15:29.352Z,100.00
2023-04-18T04:18:03.210Z,100.00
2023-04-18T04:20:32.165Z,100.00
2023-04-18T04:23:07.926Z,100.00
2023-04-18T04:25:38.624Z,100.00
2023-04-18T04:28:15.960Z,100.00
2023-04-18T04:30:53.204Z,100.00
2023-04-18T04:33:25.015Z,100.00
2023-04-18T04:35:55.674Z,100.00
2023-04-18T04:38:24.006Z,100.00
2023-04-18T04:40:53.068Z,100.00
2023-04-18T04:43:22.048Z,100.00
2023-04-18T04:45:52.599Z,100.00
2023-04-18T04:48:24.802Z,100.00
2023-04-18T04:50:55.266Z,100.00
2023-04-18T04:53:23.470Z,100.00
2023-04-18T04:55:52.112Z,100.00
2023-04-18T04:58:19.914Z,100.00
2023-04-18T05:01:04.020Z,100.00
2023-04-18T05:03:32.912Z,100.00
2023-04-18T05:06:01.164Z,100.00
2023-04-18T05:08:28.802Z,100.00
2023-04-18T05:10:56.478Z,100.00
2023-04-18T05:13:24.058Z,100.00
2023-04-18T05:15:52.518Z,100.00
2023-04-18T05:18:21.676Z,100.00
2023-04-18T05:20:49.329Z,100.00
2023-04-18T05:23:17.066Z,100.00
2023-04-18T05:25:44.740Z,100.00
2023-04-18T05:28:12.356Z,100.00
2023-04-18T05:30:40.838Z,98.68
2023-04-18T05:33:08.563Z,99.84
2023-04-18T05:35:37.661Z,97.33
2023-04-18T05:38:05.239Z,99.23
2023-04-18T05:40:32.863Z,100.00
2023-04-18T05:43:01.321Z,98.32
2023-04-18T05:45:29.100Z,99.81
2023-04-18T05:47:57.145Z,100.00
2023-04-18T05:50:24.869Z,100.00
2023-04-18T05:52:53.814Z,100.00
2023-04-18T05:55:21.626Z,100.00
2023-04-18T05:57:49.233Z,100.00
2023-04-18T06:00:18.019Z,100.00
2023-04-18T06:02:45.804Z,100.00
2023-04-18T06:05:14.153Z,100.00
2023-04-18T06:07:41.990Z,100.00
2023-04-18T06:10:13.410Z,100.00
2023-04-18T06:12:41.500Z,100.00
2023-04-18T06:15:10.521Z,100.00
2023-04-18T06:17:38.276Z,100.00
2023-04-18T06:20:06.765Z,100.00
2023-04-18T06:22:34.819Z,100.00
2023-04-18T06:25:02.617Z,100.00
2023-04-18T06:27:32.163Z,100.00
2023-04-18T06:29:59.921Z,100.00
2023-04-18T06:32:27.584Z,100.00
2023-04-18T06:34:55.345Z,100.00
2023-04-18T06:37:23.417Z,100.00
2023-04-18T06:39:51.005Z,98.69
2023-04-18T06:42:20.207Z,100.00
2023-04-18T06:44:50.713Z,98.72
2023-04-18T06:47:18.743Z,98.09
2023-04-18T06:49:46.343Z,100.00
2023-04-18T06:52:13.968Z,100.00
2023-04-18T06:54:41.697Z,98.27
2023-04-18T06:57:09.875Z,99.30
2023-04-18T06:59:37.553Z,96.70
2023-04-18T07:02:06.492Z,100.00
2023-04-18T07:04:34.161Z,99.99
2023-04-18T07:07:03.697Z,96.71
2023-04-18T07:09:31.317Z,95.40
2023-04-18T07:11:59.065Z,98.41
2023-04-18T07:14:27.252Z,100.00
2023-04-18T07:16:55.017Z,99.62
2023-04-18T07:19:24.136Z,96.24
2023-04-18T07:21:51.761Z,96.28
2023-04-18T07:24:19.351Z,96.70
2023-04-18T07:26:47.032Z,98.25
2023-04-18T07:29:14.624Z,98.66
2023-04-18T07:31:42.261Z,94.84
2023-04-18T07:34:10.007Z,93.81
2023-04-18T07:36:39.036Z,95.79
2023-04-18T07:39:06.824Z,96.79
2023-04-18T07:41:34.774Z,91.50
2023-04-18T07:44:02.742Z,93.54
2023-04-18T07:46:32.234Z,93.17
2023-04-18T07:48:59.992Z,88.62
2023-04-18T07:51:31.318Z,88.43
2023-04-18T07:54:00.643Z,88.11
2023-04-18T07:56:28.939Z,86.70
2023-04-18T07:58:56.643Z,87.65
2023-04-18T08:01:26.990Z,88.55
2023-04-18T08:03:56.570Z,89.45
2023-04-18T08:06:24.369Z,86.42
2023-04-18T08:08:52.392Z,83.04
2023-04-18T08:11:21.566Z,83.82
2023-04-18T08:13:49.200Z,83.71
2023-04-18T08:16:17.661Z,82.18
2023-04-18T08:18:45.336Z,81.08
2023-04-18T08:21:13.148Z,82.65
2023-04-18T08:23:41.238Z,82.19
2023-04-18T08:26:08.853Z,83.13
2023-04-18T08:28:37.882Z,81.73
2023-04-18T08:31:06.320Z,83.14
2023-04-18T08:33:33.989Z,85.87
2023-04-18T08:36:01.629Z,87.18
2023-04-18T08:38:29.470Z,89.30
2023-04-18T08:40:57.144Z,86.61
2023-04-18T08:43:25.317Z,86.71
2023-04-18T08:45:59.264Z,79.52
2023-04-18T08:48:27.845Z,82.10
2023-04-18T08:50:58.350Z,78.61
2023-04-18T08:53:27.313Z,77.54
2023-04-18T08:55:56.155Z,74.80
2023-04-18T08:58:25.501Z,77.71
2023-04-18T09:00:55.279Z,79.25
2023-04-18T09:03:37.491Z,77.95
2023-04-18T09:06:11.430Z,77.58
2023-04-18T09:08:39.356Z,77.10
2023-04-18T09:11:28.620Z,78.27
2023-04-18T09:13:58.736Z,79.41
2023-04-18T09:16:29.137Z,78.01
2023-04-18T09:19:11.567Z,79.23
2023-04-18T09:21:40.327Z,81.35
2023-04-18T09:24:20.672Z,80.99
2023-04-18T09:26:49.845Z,81.21
2023-04-18T09:29:18.461Z,83.49
2023-04-18T09:31:59.757Z,83.33
2023-04-18T09:34:27.867Z,84.58
2023-04-18T09:37:09.497Z,81.87
2023-04-18T09:39:38.576Z,86.12
2023-04-18T09:42:06.950Z,85.14
2023-04-18T09:44:34.783Z,84.17
2023-04-18T09:47:03.756Z,82.44
2023-04-18T09:49:31.434Z,81.27
2023-04-18T09:52:00.463Z,78.00
2023-04-18T09:54:31.983Z,77.87
2023-04-18T09:57:01.046Z,75.71
2023-04-18T09:59:37.835Z,74.71
2023-04-18T10:02:16.169Z,76.04
2023-04-18T10:04:46.231Z,77.57
2023-04-18T10:07:15.901Z,76.43
2023-04-18T10:09:46.558Z,74.66
2023-04-18T10:12:15.020Z,73.84
2023-04-18T10:14:43.822Z,76.55
2023-04-18T10:17:14.953Z,78.11
2023-04-18T10:19:45.929Z,74.33
2023-04-18T10:22:14.208Z,74.26
2023-04-18T10:24:53.049Z,74.61
2023-04-18T10:27:56.380Z,70.56
2023-04-18T10:30:57.186Z,71.27
2023-04-18T10:33:33.608Z,68.04
2023-04-18T10:36:06.032Z,67.62
2023-04-18T10:38:34.957Z,67.43
2023-04-18T10:41:22.234Z,67.84
2023-04-18T10:44:11.383Z,66.24
2023-04-18T10:46:40.118Z,71.35
2023-04-18T10:49:16.398Z,64.28
2023-04-18T10:51:45.202Z,69.31
2023-04-18T10:54:18.140Z,68.52
2023-04-18T10:56:53.777Z,68.77
2023-04-18T10:59:23.643Z,67.01
2023-04-18T11:01:56.702Z,67.90
2023-04-18T11:04:26.313Z,62.93
2023-04-18T11:06:57.154Z,63.80
2023-04-18T11:09:25.915Z,62.59
2023-04-18T11:12:04.564Z,60.39
2023-04-18T11:14:40.683Z,62.65
2023-04-18T11:17:22.119Z,58.11
2023-04-18T11:19:51.573Z,59.42
2023-04-18T11:22:19.317Z,59.07
2023-04-18T11:24:47.017Z,59.51
2023-04-18T11:27:14.988Z,61.70
2023-04-18T11:29:42.746Z,63.38
2023-04-18T11:32:11.103Z,61.90
2023-04-18T11:34:38.746Z,61.87
2023-04-18T11:37:08.572Z,60.23
2023-04-18T11:39:37.066Z,57.97
2023-04-18T11:42:05.706Z,57.98
2023-04-18T11:44:36.205Z,59.63
2023-04-18T11:47:04.121Z,58.11
2023-04-18T11:49:33.184Z,60.41
2023-04-18T11:52:01.286Z,59.71
2023-04-18T11:54:43.988Z,59.01
2023-04-18T11:57:25.885Z,59.09
2023-04-18T11:59:54.830Z,59.43
2023-04-18T12:02:23.669Z,59.75
2023-04-18T12:04:56.945Z,59.43
2023-04-18T12:07:32.776Z,60.34
2023-04-18T12:10:01.860Z,59.96
2023-04-18T12:12:29.578Z,58.75
2023-04-18T12:15:05.428Z,59.21
2023-04-18T12:17:33.421Z,60.29
2023-04-18T12:20:05.984Z,58.74
2023-04-18T12:22:41.866Z,56.34
2023-04-18T12:25:22.829Z,60.65
2023-04-18T12:27:58.387Z,58.08
2023-04-18T12:30:28.115Z,58.52
2023-04-18T12:32:57.954Z,59.48
2023-04-18T12:35:26.360Z,57.79
2023-04-18T12:37:55.425Z,57.89
2023-04-18T12:40:26.362Z,57.64
2023-04-18T12:42:55.375Z,58.69
2023-04-18T12:45:24.000Z,57.76
2023-04-18T12:47:53.179Z,56.13
2023-04-18T12:50:22.812Z,55.83
2023-04-18T12:52:54.555Z,56.72
2023-04-18T12:55:24.468Z,56.97
2023-04-18T12:57:54.283Z,58.16
2023-04-18T13:00:23.322Z,57.89
2023-04-18T13:02:52.351Z,57.05
2023-04-18T13:05:21.580Z,57.40
2023-04-18T13:07:49.791Z,57.00
2023-04-18T13:10:19.441Z,56.96
2023-04-18T13:12:50.043Z,56.47
2023-04-18T13:15:18.223Z,55.88
2023-04-18T13:17:45.899Z,56.01
2023-04-18T13:20:13.843Z,57.05
2023-04-18T13:22:42.696Z,58.29
2023-04-18T13:25:11.574Z,57.22
2023-04-18T13:27:41.712Z,57.66
2023-04-18T13:30:11.930Z,57.29
2023-04-18T13:32:40.530Z,58.62
2023-04-18T13:35:09.654Z,55.98
2023-04-18T13:37:37.799Z,58.74
2023-04-18T13:40:07.028Z,58.69
2023-04-18T13:42:35.071Z,59.71
2023-04-18T13:45:03.001Z,57.05
2023-04-18T13:47:31.955Z,57.77
2023-04-18T13:49:59.591Z,56.65
2023-04-18T13:52:27.154Z,57.32
2023-04-18T13:54:54.836Z,55.79
2023-04-18T13:57:23.433Z,56.57
2023-04-18T13:59:51.233Z,57.24
2023-04-18T14:02:18.896Z,56.24
2023-04-18T14:04:48.014Z,53.47
2023-04-18T14:07:16.457Z,55.21
2023-04-18T14:09:44.124Z,53.21
2023-04-18T14:12:11.730Z,55.58
2023-04-18T14:14:39.380Z,52.26
2023-04-18T14:17:07.407Z,53.71
2023-04-18T14:19:35.694Z,52.12
2023-04-18T14:22:04.618Z,53.81
2023-04-18T14:24:32.239Z,54.61
2023-04-18T14:26:59.891Z,52.29
2023-04-18T14:29:27.496Z,54.79
2023-04-18T14:31:55.748Z,54.99
2023-04-18T14:34:23.334Z,56.12
2023-04-18T14:36:50.951Z,55.05
2023-04-18T14:39:19.873Z,55.58
2023-04-18T14:41:47.516Z,56.44
2023-04-18T14:44:15.364Z,54.76
2023-04-18T14:46:43.393Z,52.87
2023-04-18T14:49:11.382Z,52.69
2023-04-18T14:51:39.012Z,51.87
2023-04-18T14:54:06.781Z,51.93
2023-04-18T14:56:35.984Z,52.11
2023-04-18T14:59:03.790Z,52.31
2023-04-18T15:01:31.461Z,53.19
2023-04-18T15:03:59.362Z,52.66
2023-04-18T15:06:28.338Z,51.82
2023-04-18T15:08:57.152Z,50.38
2023-04-18T15:11:24.896Z,53.18
2023-04-18T15:13:53.918Z,52.50
2023-04-18T15:16:21.675Z,50.60
2023-04-18T15:18:49.271Z,50.20
2023-04-18T15:21:16.935Z,50.55
2023-04-18T15:23:44.577Z,49.58
2023-04-18T15:26:12.343Z,51.85
2023-04-18T15:28:40.013Z,52.84
2023-04-18T15:31:09.566Z,52.15
2023-04-18T15:33:37.289Z,53.41
2023-04-18T15:36:05.505Z,52.19
2023-04-18T15:38:33.350Z,53.14
2023-04-18T15:41:01.022Z,53.88
2023-04-18T15:43:28.646Z,52.13
2023-04-18T15:45:56.324Z,52.86
2023-04-18T15:48:25.299Z,53.61
2023-04-18T15:50:53.003Z,53.26
2023-04-18T15:53:20.791Z,53.42
2023-04-18T15:55:48.429Z,53.52
2023-04-18T15:58:16.083Z,53.56
2023-04-18T16:00:44.314Z,53.62
2023-04-18T16:03:12.218Z,54.52
2023-04-18T16:05:41.390Z,53.99
2023-04-18T16:08:09.408Z,54.95
2023-04-18T16:10:37.762Z,55.40
2023-04-18T16:13:06.627Z,55.15
2023-04-18T16:15:35.424Z,54.90
2023-04-18T16:18:03.340Z,55.14
2023-04-18T16:20:33.131Z,55.69
2023-04-18T16:23:02.104Z,56.13
2023-04-18T16:25:29.733Z,56.96
2023-04-18T16:27:57.343Z,56.68
2023-04-18T16:30:24.964Z,57.50
2023-04-18T16:32:52.734Z,58.04
2023-04-18T16:35:20.560Z,56.27
2023-04-18T16:37:48.461Z,56.96
2023-04-18T16:40:17.514Z,56.50
2023-04-18T16:42:45.266Z,55.77
2023-04-18T16:45:13.155Z,54.68
2023-04-18T16:47:40.900Z,55.81
2023-04-18T16:50:09.603Z,53.52
2023-04-18T16:52:37.217Z,54.40
2023-04-18T16:55:05.513Z,54.71
2023-04-18T16:57:34.532Z,53.49
2023-04-18T17:00:02.753Z,55.30
2023-04-18T17:02:30.565Z,54.09
2023-04-18T17:04:58.429Z,57.11
2023-04-18T17:07:26.187Z,55.79
2023-04-18T17:09:53.947Z,58.99
2023-04-18T17:12:22.135Z,58.47
2023-04-18T17:14:51.118Z,58.53
2023-04-18T17:17:18.723Z,59.57
2023-04-18T17:19:46.711Z,59.38
2023-04-18T17:22:14.337Z,60.69
2023-04-18T17:24:41.891Z,59.32
2023-04-18T17:27:09.570Z,59.89
2023-04-18T17:29:37.235Z,60.58
2023-04-18T17:32:06.793Z,59.54
2023-04-18T17:34:34.574Z,59.67
2023-04-18T17:37:02.928Z,61.88
2023-04-18T17:39:32.093Z,62.13
2023-04-18T17:42:00.234Z,62.67
2023-04-18T17:44:27.833Z,63.82
2023-04-18T17:46:55.485Z,63.27
2023-04-18T17:49:24.418Z,63.27
2023-04-18T17:51:52.055Z,64.27
2023-04-18T17:54:19.700Z,64.14
2023-04-18T17:56:47.344Z,67.20
2023-04-18T17:59:15.349Z,67.77
2023-04-18T18:01:43.276Z,70.52
2023-04-18T18:04:11.029Z,72.98
2023-04-18T18:06:40.630Z,74.84
2023-04-18T18:09:08.308Z,73.11
2023-04-18T18:11:36.390Z,77.22
2023-04-18T18:14:04.340Z,75.80
2023-04-18T18:16:32.282Z,77.89
2023-04-18T18:19:00.350Z,78.49
2023-04-18T18:21:28.695Z,75.37
2023-04-18T18:23:57.747Z,77.76
2023-04-18T18:26:26.414Z,77.13
2023-04-18T18:28:54.322Z,78.67
2023-04-18T18:31:24.608Z,79.53
2023-04-18T18:33:52.307Z,78.94
2023-04-18T18:36:19.961Z,80.80
2023-04-18T18:38:47.687Z,79.62
2023-04-18T18:41:16.737Z,78.79
2023-04-18T18:43:44.407Z,78.19
2023-04-18T18:46:12.112Z,79.08
2023-04-18T18:48:40.182Z,81.53
2023-04-18T18:51:08.311Z,81.23
2023-04-18T18:53:37.717Z,80.52
2023-04-18T18:56:08.537Z,81.57
2023-04-18T18:58:38.250Z,81.09
2023-04-18T19:01:06.607Z,83.86
2023-04-18T19:03:34.780Z,81.51
2023-04-18T19:06:03.806Z,83.36
2023-04-18T19:08:31.557Z,82.84
2023-04-18T19:10:59.265Z,83.77
2023-04-18T19:13:27.278Z,82.51
2023-04-18T19:15:56.359Z,82.56
2023-04-18T19:18:24.086Z,86.53
2023-04-18T19:20:51.776Z,83.94
2023-04-18T19:23:19.442Z,84.07
2023-04-18T19:25:47.203Z,84.36
2023-04-18T19:28:16.132Z,85.00
2023-04-18T19:30:43.837Z,85.94
2023-04-18T19:33:13.899Z,84.60
2023-04-18T19:35:42.989Z,87.32
2023-04-18T19:38:10.592Z,86.65
2023-04-18T19:40:38.572Z,86.99
2023-04-18T19:43:06.180Z,87.08
2023-04-18T19:45:33.961Z,88.71
2023-04-18T19:48:01.667Z,88.23
2023-04-18T19:50:31.217Z,90.13
2023-04-18T19:52:58.843Z,89.14
2023-04-18T19:55:26.416Z,90.63
2023-04-18T19:57:55.601Z,90.56
2023-04-18T20:00:23.326Z,92.15
2023-04-18T20:02:51.168Z,91.19
2023-04-18T20:05:19.293Z,92.48
2023-04-18T20:07:48.289Z,91.50
2023-04-18T20:10:15.914Z,92.61
2023-04-18T20:12:43.568Z,95.04
2023-04-18T20:15:12.212Z,93.70
2023-04-18T20:17:39.898Z,95.12
2023-04-18T20:20:10.430Z,92.58
2023-04-18T20:22:40.181Z,95.47
2023-04-18T20:25:09.829Z,94.36
2023-04-18T20:27:37.549Z,95.89
2023-04-18T20:30:06.679Z,97.18
2023-04-18T20:32:34.518Z,98.85
2023-04-18T20:35:02.863Z,96.87
2023-04-18T20:37:30.522Z,99.56
2023-04-18T20:39:58.649Z,98.32
2023-04-18T20:42:27.639Z,98.54
2023-04-18T20:44:55.222Z,99.47
2023-04-18T20:47:22.873Z,97.35
2023-04-18T20:49:50.667Z,99.61
2023-04-18T20:52:18.594Z,98.78
2023-04-18T20:54:46.242Z,98.02
2023-04-18T20:57:13.904Z,99.68
2023-04-18T20:59:42.937Z,98.70
2023-04-18T21:02:10.636Z,100.00
2023-04-18T21:04:38.605Z,99.16
2023-04-18T21:07:06.274Z,99.44
2023-04-18T21:09:36.881Z,98.00
2023-04-18T21:12:05.349Z,100.00
2023-04-18T21:14:33.073Z,100.00
2023-04-18T21:17:02.206Z,100.00
2023-04-18T21:19:29.831Z,100.00
2023-04-18T21:21:57.597Z,100.00
2023-04-18T21:24:25.272Z,100.00
2023-04-18T21:26:52.858Z,100.00
2023-04-18T21:29:21.941Z,100.00
2023-04-18T21:31:50.170Z,100.00
2023-04-18T21:34:19.123Z,100.00
2023-04-18T21:36:46.743Z,100.00
2023-04-18T21:39:14.394Z,100.00
2023-04-18T21:41:42.152Z,100.00
2023-04-18T21:44:10.475Z,100.00
2023-04-18T21:46:38.328Z,100.00
2023-04-18T21:49:05.909Z,100.00
2023-04-18T21:51:34.914Z,100.00
2023-04-18T21:54:02.751Z,100.00
2023-04-18T21:56:30.680Z,100.00
2023-04-18T21:58:58.289Z,100.00
2023-04-18T22:01:26.044Z,100.00
2023-04-18T22:03:53.965Z,100.00
2023-04-18T22:06:22.998Z,100.00
2023-04-18T22:08:52.109Z,100.00
2023-04-18T22:11:20.097Z,100.00
2023-04-18T22:13:47.675Z,100.00
2023-04-18T22:16:15.695Z,100.00
2023-04-18T22:18:43.360Z,100.00
2023-04-18T22:21:11.285Z,100.00
2023-04-18T22:23:38.885Z,100.00
2023-04-18T22:26:07.891Z,100.00
2023-04-18T22:28:35.540Z,100.00
2023-04-18T22:31:03.276Z,100.00
2023-04-18T22:33:30.974Z,100.00
2023-04-18T22:35:58.589Z,100.00
2023-04-18T22:38:26.242Z,100.00
2023-04-18T22:40:53.896Z,100.00
2023-04-18T22:43:24.302Z,100.00
2023-04-18T22:45:52.409Z,100.00
2023-04-18T22:48:20.110Z,100.00
2023-04-18T22:50:47.758Z,100.00
2023-04-18T22:53:15.464Z,100.00
2023-04-18T22:55:44.553Z,100.00
2023-04-18T22:58:13.361Z,100.00
2023-04-18T23:00:42.311Z,100.00
2023-04-18T23:03:10.196Z,100.00
2023-04-18T23:05:38.068Z,100.00
2023-04-18T23:08:06.827Z,100.00
2023-04-18T23:10:34.983Z,100.00
2023-04-18T23:13:02.636Z,100.00
2023-04-18T23:15:30.498Z,100.00
2023-04-18T23:17:59.529Z,100.00
2023-04-18T23:20:27.258Z,100.00
2023-04-18T23:22:55.851Z,100.00
2023-04-18T23:25:23.665Z,100.00
2023-04-18T23:27:51.514Z,100.00
2023-04-18T23:30:19.134Z,100.00
2023-04-18T23:32:46.784Z,100.00
2023-04-18T23:35:15.828Z,100.00
2023-04-18T23:37:43.555Z,100.00
2023-04-18T23:40:11.263Z,100.00
2023-04-18T23:42:38.838Z,100.00
2023-04-18T23:45:07.249Z,100.00
2023-04-18T23:47:35.010Z,100.00
2023-04-18T23:50:02.940Z,100.00
2023-04-18T23:52:31.880Z,100.00
2023-04-18T23:55:00.467Z,100.00
2023-04-18T23:57:28.172Z,100.00
2023-04-18T23:59:55.908Z,100.00
